sensor_id;sensor_type;location;lat;lon;timestamp;P1;durP1;ratioP1;P2;durP2;ratioP2
44120;SDS011;29783;52.504;13.478;2023-07-08T00:00:41;10.18;;;4.47;;
44120;SDS011;29783;52.504;13.478;2023-07-08T00:03:07;5.63;;;3.70;;
44120;SDS011;29783;52.504;13.478;2023-07-08T00:05:33;10.55;;;4.15;;
44120;SDS011;29783;52.504;13.478;2023-07-08T00:07:59;10.23;;;4.38;;
44120;SDS011;29783;52.504;13.478;2023-07-08T00:10:25;6.45;;;4.72;;
44120;SDS011;29783;52.504;13.478;2023-07-08T00:12:53;17.15;;;5.40;;
44120;SDS011;29783;52.504;13.478;2023-07-08T00:15:29;9.13;;;4.82;;
44120;SDS011;29783;52.504;13.478;2023-07-08T00:17:59;9.05;;;4.80;;
44120;SDS011;29783;52.504;13.478;2023-07-08T00:22:54;10.32;;;4.38;;
44120;SDS011;29783;52.504;13.478;2023-07-08T00:25:20;9.55;;;4.18;;
44120;SDS011;29783;52.504;13.478;2023-07-08T00:27:46;11.50;;;4.65;;
44120;SDS011;29783;52.504;13.478;2023-07-08T00:30:23;7.60;;;4.95;;
44120;SDS011;29783;52.504;13.478;2023-07-08T00:32:51;10.30;;;5.78;;
44120;SDS011;29783;52.504;13.478;2023-07-08T00:35:26;8.02;;;4.82;;
44120;SDS011;29783;52.504;13.478;2023-07-08T00:37:53;8.60;;;5.27;;
44120;SDS011;29783;52.504;13.478;2023-07-08T00:40:26;8.07;;;5.38;;
44120;SDS011;29783;52.504;13.478;2023-07-08T00:42:58;10.48;;;4.57;;
44120;SDS011;29783;52.504;13.478;2023-07-08T00:48:36;9.00;;;4.47;;
44120;SDS011;29783;52.504;13.478;2023-07-08T00:51:05;9.93;;;4.70;;
44120;SDS011;29783;52.504;13.478;2023-07-08T00:53:36;5.88;;;4.35;;
44120;SDS011;29783;52.504;13.478;2023-07-08T00:58:41;6.57;;;4.00;;
44120;SDS011;29783;52.504;13.478;2023-07-08T01:01:10;7.60;;;4.35;;
44120;SDS011;29783;52.504;13.478;2023-07-08T01:03:40;9.82;;;4.53;;
44120;SDS011;29783;52.504;13.478;2023-07-08T01:06:22;7.35;;;3.70;;
44120;SDS011;29783;52.504;13.478;2023-07-08T01:08:56;5.70;;;4.05;;
44120;SDS011;29783;52.504;13.478;2023-07-08T01:11:24;13.10;;;3.67;;
44120;SDS011;29783;52.504;13.478;2023-07-08T01:13:49;8.30;;;3.67;;
44120;SDS011;29783;52.504;13.478;2023-07-08T01:16:16;6.82;;;3.65;;
44120;SDS011;29783;52.504;13.478;2023-07-08T01:18:42;8.75;;;3.70;;
44120;SDS011;29783;52.504;13.478;2023-07-08T01:21:51;10.52;;;3.47;;
44120;SDS011;29783;52.504;13.478;2023-07-08T01:24:01;7.05;;;3.72;;
44120;SDS011;29783;52.504;13.478;2023-07-08T01:26:30;5.97;;;3.60;;
44120;SDS011;29783;52.504;13.478;2023-07-08T01:28:58;12.90;;;3.47;;
44120;SDS011;29783;52.504;13.478;2023-07-08T01:31:24;13.25;;;3.70;;
44120;SDS011;29783;52.504;13.478;2023-07-08T01:33:51;5.47;;;3.33;;
44120;SDS011;29783;52.504;13.478;2023-07-08T01:36:17;6.47;;;3.30;;
44120;SDS011;29783;52.504;13.478;2023-07-08T01:38:43;9.18;;;3.30;;
44120;SDS011;29783;52.504;13.478;2023-07-08T01:41:11;4.10;;;3.00;;
44120;SDS011;29783;52.504;13.478;2023-07-08T01:43:38;5.93;;;3.30;;
44120;SDS011;29783;52.504;13.478;2023-07-08T01:46:03;3.90;;;2.80;;
44120;SDS011;29783;52.504;13.478;2023-07-08T01:48:34;5.95;;;3.35;;
44120;SDS011;29783;52.504;13.478;2023-07-08T01:51:05;8.07;;;3.55;;
44120;SDS011;29783;52.504;13.478;2023-07-08T01:53:33;12.88;;;3.22;;
44120;SDS011;29783;52.504;13.478;2023-07-08T01:56:00;7.25;;;3.10;;
44120;SDS011;29783;52.504;13.478;2023-07-08T01:58:26;11.82;;;3.03;;
44120;SDS011;29783;52.504;13.478;2023-07-08T02:00:53;7.82;;;3.20;;
44120;SDS011;29783;52.504;13.478;2023-07-08T02:03:19;5.75;;;2.90;;
44120;SDS011;29783;52.504;13.478;2023-07-08T02:05:45;6.70;;;3.22;;
44120;SDS011;29783;52.504;13.478;2023-07-08T02:08:11;8.38;;;2.72;;
44120;SDS011;29783;52.504;13.478;2023-07-08T02:10:38;6.53;;;3.20;;
44120;SDS011;29783;52.504;13.478;2023-07-08T02:13:05;5.88;;;3.25;;
44120;SDS011;29783;52.504;13.478;2023-07-08T02:15:30;4.93;;;2.97;;
44120;SDS011;29783;52.504;13.478;2023-07-08T02:17:56;7.43;;;3.15;;
44120;SDS011;29783;52.504;13.478;2023-07-08T02:20:22;7.28;;;3.22;;
44120;SDS011;29783;52.504;13.478;2023-07-08T02:22:48;10.07;;;3.45;;
44120;SDS011;29783;52.504;13.478;2023-07-08T02:25:14;7.20;;;3.47;;
44120;SDS011;29783;52.504;13.478;2023-07-08T02:27:40;4.90;;;3.00;;
44120;SDS011;29783;52.504;13.478;2023-07-08T02:30:07;4.25;;;2.78;;
44120;SDS011;29783;52.504;13.478;2023-07-08T02:32:33;7.78;;;2.70;;
44120;SDS011;29783;52.504;13.478;2023-07-08T02:35:00;9.90;;;3.20;;
44120;SDS011;29783;52.504;13.478;2023-07-08T02:37:28;6.40;;;3.33;;
44120;SDS011;29783;52.504;13.478;2023-07-08T02:39:54;4.30;;;3.00;;
44120;SDS011;29783;52.504;13.478;2023-07-08T02:42:20;7.53;;;3.03;;
44120;SDS011;29783;52.504;13.478;2023-07-08T02:44:46;7.40;;;3.20;;
44120;SDS011;29783;52.504;13.478;2023-07-08T02:47:12;5.57;;;3.15;;
44120;SDS011;29783;52.504;13.478;2023-07-08T02:49:37;9.73;;;3.20;;
44120;SDS011;29783;52.504;13.478;2023-07-08T02:52:03;6.40;;;3.33;;
44120;SDS011;29783;52.504;13.478;2023-07-08T02:54:29;7.60;;;3.03;;
44120;SDS011;29783;52.504;13.478;2023-07-08T02:56:54;7.68;;;3.15;;
44120;SDS011;29783;52.504;13.478;2023-07-08T02:59:20;7.90;;;3.55;;
44120;SDS011;29783;52.504;13.478;2023-07-08T03:01:46;6.45;;;3.30;;
44120;SDS011;29783;52.504;13.478;2023-07-08T03:04:12;12.75;;;3.70;;
44120;SDS011;29783;52.504;13.478;2023-07-08T03:06:42;10.07;;;3.22;;
44120;SDS011;29783;52.504;13.478;2023-07-08T03:09:09;9.25;;;3.33;;
44120;SDS011;29783;52.504;13.478;2023-07-08T03:11:37;10.73;;;3.08;;
44120;SDS011;29783;52.504;13.478;2023-07-08T03:14:03;7.70;;;3.70;;
44120;SDS011;29783;52.504;13.478;2023-07-08T03:16:30;14.57;;;3.15;;
44120;SDS011;29783;52.504;13.478;2023-07-08T03:18:56;9.80;;;3.17;;
44120;SDS011;29783;52.504;13.478;2023-07-08T03:21:21;5.72;;;3.20;;
44120;SDS011;29783;52.504;13.478;2023-07-08T03:23:48;5.32;;;3.28;;
44120;SDS011;29783;52.504;13.478;2023-07-08T03:26:15;15.25;;;3.42;;
44120;SDS011;29783;52.504;13.478;2023-07-08T03:28:47;8.48;;;3.60;;
44120;SDS011;29783;52.504;13.478;2023-07-08T03:31:13;9.23;;;3.28;;
44120;SDS011;29783;52.504;13.478;2023-07-08T03:33:39;5.55;;;3.00;;
44120;SDS011;29783;52.504;13.478;2023-07-08T03:36:07;3.38;;;2.47;;
44120;SDS011;29783;52.504;13.478;2023-07-08T03:38:50;4.93;;;2.70;;
44120;SDS011;29783;52.504;13.478;2023-07-08T03:41:17;7.15;;;2.83;;
44120;SDS011;29783;52.504;13.478;2023-07-08T03:43:43;6.40;;;3.25;;
44120;SDS011;29783;52.504;13.478;2023-07-08T03:46:12;6.97;;;3.47;;
44120;SDS011;29783;52.504;13.478;2023-07-08T03:48:39;4.63;;;3.10;;
44120;SDS011;29783;52.504;13.478;2023-07-08T03:51:08;7.28;;;3.33;;
44120;SDS011;29783;52.504;13.478;2023-07-08T03:53:42;8.32;;;3.33;;
44120;SDS011;29783;52.504;13.478;2023-07-08T03:56:08;6.22;;;3.10;;
44120;SDS011;29783;52.504;13.478;2023-07-08T03:58:38;4.10;;;2.72;;
44120;SDS011;29783;52.504;13.478;2023-07-08T04:01:03;5.70;;;3.10;;
44120;SDS011;29783;52.504;13.478;2023-07-08T04:03:29;4.53;;;3.10;;
44120;SDS011;29783;52.504;13.478;2023-07-08T04:05:55;12.45;;;3.80;;
44120;SDS011;29783;52.504;13.478;2023-07-08T04:08:21;7.20;;;2.90;;
44120;SDS011;29783;52.504;13.478;2023-07-08T04:10:46;6.95;;;3.17;;
44120;SDS011;29783;52.504;13.478;2023-07-08T04:13:12;7.85;;;3.00;;
44120;SDS011;29783;52.504;13.478;2023-07-08T04:15:37;5.00;;;3.08;;
44120;SDS011;29783;52.504;13.478;2023-07-08T04:18:03;3.70;;;2.70;;
44120;SDS011;29783;52.504;13.478;2023-07-08T04:20:29;9.90;;;2.83;;
44120;SDS011;29783;52.504;13.478;2023-07-08T04:22:54;5.50;;;3.03;;
44120;SDS011;29783;52.504;13.478;2023-07-08T04:25:21;4.53;;;2.85;;
44120;SDS011;29783;52.504;13.478;2023-07-08T04:27:46;5.57;;;3.03;;
44120;SDS011;29783;52.504;13.478;2023-07-08T04:30:20;8.13;;;3.00;;
44120;SDS011;29783;52.504;13.478;2023-07-08T04:32:49;9.02;;;2.60;;
44120;SDS011;29783;52.504;13.478;2023-07-08T04:35:15;12.98;;;2.95;;
44120;SDS011;29783;52.504;13.478;2023-07-08T04:37:41;5.20;;;2.90;;
44120;SDS011;29783;52.504;13.478;2023-07-08T04:40:11;5.15;;;2.90;;
44120;SDS011;29783;52.504;13.478;2023-07-08T04:42:44;10.13;;;2.80;;
44120;SDS011;29783;52.504;13.478;2023-07-08T04:45:12;5.93;;;3.20;;
44120;SDS011;29783;52.504;13.478;2023-07-08T04:47:39;4.13;;;2.42;;
44120;SDS011;29783;52.504;13.478;2023-07-08T04:50:05;5.55;;;3.05;;
44120;SDS011;29783;52.504;13.478;2023-07-08T04:52:30;5.47;;;3.10;;
44120;SDS011;29783;52.504;13.478;2023-07-08T04:54:56;11.73;;;3.33;;
44120;SDS011;29783;52.504;13.478;2023-07-08T04:57:22;3.22;;;2.55;;
44120;SDS011;29783;52.504;13.478;2023-07-08T04:59:47;5.00;;;3.00;;
44120;SDS011;29783;52.504;13.478;2023-07-08T05:02:13;6.22;;;2.95;;
44120;SDS011;29783;52.504;13.478;2023-07-08T05:04:39;6.05;;;2.97;;
44120;SDS011;29783;52.504;13.478;2023-07-08T05:07:04;4.55;;;2.53;;
44120;SDS011;29783;52.504;13.478;2023-07-08T05:09:30;6.78;;;2.97;;
44120;SDS011;29783;52.504;13.478;2023-07-08T05:11:56;5.07;;;2.60;;
44120;SDS011;29783;52.504;13.478;2023-07-08T05:14:22;5.13;;;3.05;;
44120;SDS011;29783;52.504;13.478;2023-07-08T05:16:48;5.28;;;2.90;;
44120;SDS011;29783;52.504;13.478;2023-07-08T05:19:13;4.53;;;2.90;;
44120;SDS011;29783;52.504;13.478;2023-07-08T05:21:39;5.95;;;3.05;;
44120;SDS011;29783;52.504;13.478;2023-07-08T05:24:06;9.05;;;2.80;;
44120;SDS011;29783;52.504;13.478;2023-07-08T05:26:32;5.07;;;2.97;;
44120;SDS011;29783;52.504;13.478;2023-07-08T05:28:58;4.28;;;2.58;;
44120;SDS011;29783;52.504;13.478;2023-07-08T05:31:23;5.43;;;2.83;;
44120;SDS011;29783;52.504;13.478;2023-07-08T05:33:49;5.45;;;2.80;;
44120;SDS011;29783;52.504;13.478;2023-07-08T05:36:14;4.40;;;3.15;;
44120;SDS011;29783;52.504;13.478;2023-07-08T05:38:40;8.68;;;2.83;;
44120;SDS011;29783;52.504;13.478;2023-07-08T05:41:06;3.65;;;2.78;;
44120;SDS011;29783;52.504;13.478;2023-07-08T05:43:31;7.63;;;2.80;;
44120;SDS011;29783;52.504;13.478;2023-07-08T05:45:58;11.60;;;2.50;;
44120;SDS011;29783;52.504;13.478;2023-07-08T05:48:24;3.63;;;2.40;;
44120;SDS011;29783;52.504;13.478;2023-07-08T05:50:50;10.07;;;3.33;;
44120;SDS011;29783;52.504;13.478;2023-07-08T05:53:17;14.68;;;2.60;;
44120;SDS011;29783;52.504;13.478;2023-07-08T05:55:44;5.65;;;3.35;;
44120;SDS011;29783;52.504;13.478;2023-07-08T05:58:10;5.43;;;2.78;;
44120;SDS011;29783;52.504;13.478;2023-07-08T06:00:36;5.07;;;2.88;;
44120;SDS011;29783;52.504;13.478;2023-07-08T06:03:02;4.90;;;2.95;;
44120;SDS011;29783;52.504;13.478;2023-07-08T06:05:27;5.47;;;2.90;;
44120;SDS011;29783;52.504;13.478;2023-07-08T06:07:53;5.53;;;2.60;;
44120;SDS011;29783;52.504;13.478;2023-07-08T06:10:18;14.02;;;3.20;;
44120;SDS011;29783;52.504;13.478;2023-07-08T06:12:44;12.05;;;3.20;;
44120;SDS011;29783;52.504;13.478;2023-07-08T06:15:10;7.80;;;2.70;;
44120;SDS011;29783;52.504;13.478;2023-07-08T06:17:37;4.53;;;2.92;;
44120;SDS011;29783;52.504;13.478;2023-07-08T06:20:03;6.28;;;3.15;;
44120;SDS011;29783;52.504;13.478;2023-07-08T06:22:29;4.07;;;2.83;;
44120;SDS011;29783;52.504;13.478;2023-07-08T06:24:54;4.47;;;2.40;;
44120;SDS011;29783;52.504;13.478;2023-07-08T06:27:20;6.25;;;2.53;;
44120;SDS011;29783;52.504;13.478;2023-07-08T06:29:45;5.90;;;2.60;;
44120;SDS011;29783;52.504;13.478;2023-07-08T06:32:11;4.63;;;2.40;;
44120;SDS011;29783;52.504;13.478;2023-07-08T06:34:37;6.22;;;2.45;;
44120;SDS011;29783;52.504;13.478;2023-07-08T06:37:02;7.55;;;2.67;;
44120;SDS011;29783;52.504;13.478;2023-07-08T06:39:28;6.10;;;2.80;;
44120;SDS011;29783;52.504;13.478;2023-07-08T06:41:54;5.13;;;2.80;;
44120;SDS011;29783;52.504;13.478;2023-07-08T06:44:19;5.63;;;2.92;;
44120;SDS011;29783;52.504;13.478;2023-07-08T06:46:45;8.30;;;2.80;;
44120;SDS011;29783;52.504;13.478;2023-07-08T06:49:10;9.52;;;2.97;;
44120;SDS011;29783;52.504;13.478;2023-07-08T06:51:37;8.10;;;3.00;;
44120;SDS011;29783;52.504;13.478;2023-07-08T06:54:03;5.28;;;2.65;;
44120;SDS011;29783;52.504;13.478;2023-07-08T06:56:35;4.43;;;2.50;;
44120;SDS011;29783;52.504;13.478;2023-07-08T06:59:05;13.85;;;2.65;;
44120;SDS011;29783;52.504;13.478;2023-07-08T07:01:31;9.75;;;2.78;;
44120;SDS011;29783;52.504;13.478;2023-07-08T07:03:57;4.38;;;2.50;;
44120;SDS011;29783;52.504;13.478;2023-07-08T07:06:22;7.10;;;3.28;;
44120;SDS011;29783;52.504;13.478;2023-07-08T07:08:48;4.25;;;2.60;;
44120;SDS011;29783;52.504;13.478;2023-07-08T07:11:13;4.03;;;2.92;;
44120;SDS011;29783;52.504;13.478;2023-07-08T07:13:39;4.38;;;2.58;;
44120;SDS011;29783;52.504;13.478;2023-07-08T07:16:05;6.20;;;2.63;;
44120;SDS011;29783;52.504;13.478;2023-07-08T07:18:31;3.53;;;2.42;;
44120;SDS011;29783;52.504;13.478;2023-07-08T07:20:57;3.78;;;2.78;;
44120;SDS011;29783;52.504;13.478;2023-07-08T07:23:23;5.47;;;3.00;;
44120;SDS011;29783;52.504;13.478;2023-07-08T07:25:49;8.48;;;3.00;;
44120;SDS011;29783;52.504;13.478;2023-07-08T07:28:15;4.78;;;2.70;;
44120;SDS011;29783;52.504;13.478;2023-07-08T07:30:42;5.93;;;2.63;;
44120;SDS011;29783;52.504;13.478;2023-07-08T07:33:09;5.07;;;2.42;;
44120;SDS011;29783;52.504;13.478;2023-07-08T07:35:35;5.30;;;2.47;;
44120;SDS011;29783;52.504;13.478;2023-07-08T07:38:01;10.40;;;2.30;;
44120;SDS011;29783;52.504;13.478;2023-07-08T07:40:26;4.00;;;2.40;;
44120;SDS011;29783;52.504;13.478;2023-07-08T07:42:52;4.43;;;2.15;;
44120;SDS011;29783;52.504;13.478;2023-07-08T07:45:18;4.60;;;2.53;;
44120;SDS011;29783;52.504;13.478;2023-07-08T07:47:47;7.90;;;2.47;;
44120;SDS011;29783;52.504;13.478;2023-07-08T07:50:13;5.20;;;2.55;;
44120;SDS011;29783;52.504;13.478;2023-07-08T07:52:38;3.95;;;2.35;;
44120;SDS011;29783;52.504;13.478;2023-07-08T07:55:05;7.05;;;2.50;;
44120;SDS011;29783;52.504;13.478;2023-07-08T07:57:32;4.55;;;2.40;;
44120;SDS011;29783;52.504;13.478;2023-07-08T07:59:58;4.85;;;2.53;;
44120;SDS011;29783;52.504;13.478;2023-07-08T08:02:23;4.93;;;2.60;;
44120;SDS011;29783;52.504;13.478;2023-07-08T08:04:49;4.53;;;2.33;;
44120;SDS011;29783;52.504;13.478;2023-07-08T08:07:14;7.25;;;2.50;;
44120;SDS011;29783;52.504;13.478;2023-07-08T08:09:40;9.20;;;3.70;;
44120;SDS011;29783;52.504;13.478;2023-07-08T08:12:06;2.92;;;1.92;;
44120;SDS011;29783;52.504;13.478;2023-07-08T08:14:34;8.45;;;2.25;;
44120;SDS011;29783;52.504;13.478;2023-07-08T08:17:00;5.70;;;2.50;;
44120;SDS011;29783;52.504;13.478;2023-07-08T08:19:25;4.22;;;2.42;;
44120;SDS011;29783;52.504;13.478;2023-07-08T08:21:51;4.55;;;2.30;;
44120;SDS011;29783;52.504;13.478;2023-07-08T08:24:16;5.60;;;2.70;;
44120;SDS011;29783;52.504;13.478;2023-07-08T08:26:42;4.68;;;2.20;;
44120;SDS011;29783;52.504;13.478;2023-07-08T08:29:08;8.68;;;3.17;;
44120;SDS011;29783;52.504;13.478;2023-07-08T08:31:33;7.20;;;2.08;;
44120;SDS011;29783;52.504;13.478;2023-07-08T08:33:59;3.45;;;2.17;;
44120;SDS011;29783;52.504;13.478;2023-07-08T08:36:25;10.23;;;2.53;;
44120;SDS011;29783;52.504;13.478;2023-07-08T08:38:50;11.38;;;2.70;;
44120;SDS011;29783;52.504;13.478;2023-07-08T08:41:17;6.93;;;2.50;;
44120;SDS011;29783;52.504;13.478;2023-07-08T08:43:46;4.32;;;2.20;;
44120;SDS011;29783;52.504;13.478;2023-07-08T08:48:51;12.98;;;2.30;;
44120;SDS011;29783;52.504;13.478;2023-07-08T08:51:27;6.05;;;2.28;;
44120;SDS011;29783;52.504;13.478;2023-07-08T08:53:56;3.65;;;2.40;;
44120;SDS011;29783;52.504;13.478;2023-07-08T08:56:26;8.57;;;2.00;;
44120;SDS011;29783;52.504;13.478;2023-07-08T09:01:43;3.65;;;2.13;;
44120;SDS011;29783;52.504;13.478;2023-07-08T09:04:12;10.05;;;2.42;;
44120;SDS011;29783;52.504;13.478;2023-07-08T09:06:45;6.70;;;2.40;;
44120;SDS011;29783;52.504;13.478;2023-07-08T09:09:18;5.28;;;2.28;;
44120;SDS011;29783;52.504;13.478;2023-07-08T09:12:13;11.13;;;2.33;;
44120;SDS011;29783;52.504;13.478;2023-07-08T09:14:43;8.43;;;2.38;;
44120;SDS011;29783;52.504;13.478;2023-07-08T09:20:33;3.53;;;1.92;;
44120;SDS011;29783;52.504;13.478;2023-07-08T09:27:40;7.57;;;1.92;;
44120;SDS011;29783;52.504;13.478;2023-07-08T09:30:08;3.85;;;1.95;;
44120;SDS011;29783;52.504;13.478;2023-07-08T09:35:05;6.97;;;1.70;;
44120;SDS011;29783;52.504;13.478;2023-07-08T09:37:37;4.50;;;1.77;;
44120;SDS011;29783;52.504;13.478;2023-07-08T09:40:04;2.55;;;1.73;;
44120;SDS011;29783;52.504;13.478;2023-07-08T09:42:39;4.13;;;2.00;;
44120;SDS011;29783;52.504;13.478;2023-07-08T09:45:14;5.38;;;1.95;;
44120;SDS011;29783;52.504;13.478;2023-07-08T09:47:43;8.40;;;1.70;;
44120;SDS011;29783;52.504;13.478;2023-07-08T09:50:24;3.20;;;1.80;;
44120;SDS011;29783;52.504;13.478;2023-07-08T09:52:53;5.13;;;1.95;;
44120;SDS011;29783;52.504;13.478;2023-07-08T09:55:30;3.72;;;1.73;;
44120;SDS011;29783;52.504;13.478;2023-07-08T09:57:55;2.08;;;1.60;;
44120;SDS011;29783;52.504;13.478;2023-07-08T10:00:32;4.30;;;1.80;;
44120;SDS011;29783;52.504;13.478;2023-07-08T10:03:22;5.25;;;1.92;;
44120;SDS011;29783;52.504;13.478;2023-07-08T10:05:51;3.55;;;2.08;;
44120;SDS011;29783;52.504;13.478;2023-07-08T10:08:22;5.38;;;1.88;;
44120;SDS011;29783;52.504;13.478;2023-07-08T10:10:52;6.50;;;2.00;;
44120;SDS011;29783;52.504;13.478;2023-07-08T10:13:45;3.08;;;1.83;;
44120;SDS011;29783;52.504;13.478;2023-07-08T10:16:24;3.00;;;2.00;;
44120;SDS011;29783;52.504;13.478;2023-07-08T10:18:52;7.82;;;1.85;;
44120;SDS011;29783;52.504;13.478;2023-07-08T10:21:31;5.25;;;1.70;;
44120;SDS011;29783;52.504;13.478;2023-07-08T10:24:14;4.30;;;1.98;;
44120;SDS011;29783;52.504;13.478;2023-07-08T10:26:44;3.67;;;1.83;;
44120;SDS011;29783;52.504;13.478;2023-07-08T10:29:31;6.18;;;1.88;;
44120;SDS011;29783;52.504;13.478;2023-07-08T10:32:12;4.65;;;2.05;;
44120;SDS011;29783;52.504;13.478;2023-07-08T10:37:44;3.15;;;1.83;;
44120;SDS011;29783;52.504;13.478;2023-07-08T10:40:28;4.53;;;2.00;;
44120;SDS011;29783;52.504;13.478;2023-07-08T10:45:34;3.00;;;1.98;;
44120;SDS011;29783;52.504;13.478;2023-07-08T10:51:26;2.47;;;1.70;;
44120;SDS011;29783;52.504;13.478;2023-07-08T10:54:24;3.85;;;1.80;;
44120;SDS011;29783;52.504;13.478;2023-07-08T11:06:01;3.15;;;1.80;;
44120;SDS011;29783;52.504;13.478;2023-07-08T11:08:38;7.93;;;2.00;;
44120;SDS011;29783;52.504;13.478;2023-07-08T11:11:20;3.85;;;2.00;;
44120;SDS011;29783;52.504;13.478;2023-07-08T11:13:53;3.13;;;1.70;;
44120;SDS011;29783;52.504;13.478;2023-07-08T11:16:25;2.80;;;2.10;;
44120;SDS011;29783;52.504;13.478;2023-07-08T11:19:04;2.53;;;1.80;;
44120;SDS011;29783;52.504;13.478;2023-07-08T11:21:52;3.47;;;1.90;;
44120;SDS011;29783;52.504;13.478;2023-07-08T11:24:28;15.38;;;2.58;;
44120;SDS011;29783;52.504;13.478;2023-07-08T11:27:07;10.05;;;2.15;;
44120;SDS011;29783;52.504;13.478;2023-07-08T11:29:51;10.65;;;2.08;;
44120;SDS011;29783;52.504;13.478;2023-07-08T11:32:36;2.28;;;1.77;;
44120;SDS011;29783;52.504;13.478;2023-07-08T11:35:04;2.63;;;1.90;;
44120;SDS011;29783;52.504;13.478;2023-07-08T11:37:32;6.80;;;1.75;;
44120;SDS011;29783;52.504;13.478;2023-07-08T11:42:48;4.30;;;1.70;;
44120;SDS011;29783;52.504;13.478;2023-07-08T11:45:27;5.07;;;2.00;;
44120;SDS011;29783;52.504;13.478;2023-07-08T11:48:31;4.03;;;1.88;;
44120;SDS011;29783;52.504;13.478;2023-07-08T11:50:55;10.20;;;2.00;;
44120;SDS011;29783;52.504;13.478;2023-07-08T11:55:58;7.25;;;1.95;;
44120;SDS011;29783;52.504;13.478;2023-07-08T11:58:30;5.53;;;1.90;;
44120;SDS011;29783;52.504;13.478;2023-07-08T12:04:00;10.90;;;2.08;;
44120;SDS011;29783;52.504;13.478;2023-07-08T12:09:12;2.42;;;1.83;;
44120;SDS011;29783;52.504;13.478;2023-07-08T12:11:43;4.20;;;1.75;;
44120;SDS011;29783;52.504;13.478;2023-07-08T12:14:10;3.15;;;1.88;;
44120;SDS011;29783;52.504;13.478;2023-07-08T12:16:36;7.63;;;2.00;;
44120;SDS011;29783;52.504;13.478;2023-07-08T12:19:02;5.68;;;2.10;;
44120;SDS011;29783;52.504;13.478;2023-07-08T12:21:30;3.75;;;2.15;;
44120;SDS011;29783;52.504;13.478;2023-07-08T12:24:03;4.22;;;1.90;;
44120;SDS011;29783;52.504;13.478;2023-07-08T12:26:31;1.92;;;1.63;;
44120;SDS011;29783;52.504;13.478;2023-07-08T12:28:57;3.10;;;1.45;;
44120;SDS011;29783;52.504;13.478;2023-07-08T12:31:23;2.53;;;1.90;;
44120;SDS011;29783;52.504;13.478;2023-07-08T12:33:49;5.45;;;1.60;;
44120;SDS011;29783;52.504;13.478;2023-07-08T12:36:26;4.72;;;1.40;;
44120;SDS011;29783;52.504;13.478;2023-07-08T12:38:57;2.10;;;1.52;;
44120;SDS011;29783;52.504;13.478;2023-07-08T12:41:25;4.82;;;1.60;;
44120;SDS011;29783;52.504;13.478;2023-07-08T12:43:57;3.20;;;1.65;;
44120;SDS011;29783;52.504;13.478;2023-07-08T12:46:23;4.65;;;1.27;;
44120;SDS011;29783;52.504;13.478;2023-07-08T12:48:49;3.13;;;1.30;;
44120;SDS011;29783;52.504;13.478;2023-07-08T12:51:19;6.28;;;1.42;;
44120;SDS011;29783;52.504;13.478;2023-07-08T12:53:50;1.80;;;1.27;;
44120;SDS011;29783;52.504;13.478;2023-07-08T12:56:17;6.18;;;1.58;;
44120;SDS011;29783;52.504;13.478;2023-07-08T12:58:46;2.55;;;1.20;;
44120;SDS011;29783;52.504;13.478;2023-07-08T13:01:25;6.50;;;1.58;;
44120;SDS011;29783;52.504;13.478;2023-07-08T13:03:56;5.18;;;1.33;;
44120;SDS011;29783;52.504;13.478;2023-07-08T13:06:29;2.58;;;1.30;;
44120;SDS011;29783;52.504;13.478;2023-07-08T13:08:59;10.70;;;1.27;;
44120;SDS011;29783;52.504;13.478;2023-07-08T13:11:31;3.20;;;1.55;;
44120;SDS011;29783;52.504;13.478;2023-07-08T13:13:58;5.53;;;1.60;;
44120;SDS011;29783;52.504;13.478;2023-07-08T13:16:29;6.28;;;1.40;;
44120;SDS011;29783;52.504;13.478;2023-07-08T13:18:58;3.85;;;1.27;;
44120;SDS011;29783;52.504;13.478;2023-07-08T13:21:25;6.18;;;1.73;;
44120;SDS011;29783;52.504;13.478;2023-07-08T13:23:52;5.18;;;1.17;;
44120;SDS011;29783;52.504;13.478;2023-07-08T13:26:20;2.35;;;1.27;;
44120;SDS011;29783;52.504;13.478;2023-07-08T13:28:48;6.07;;;1.50;;
44120;SDS011;29783;52.504;13.478;2023-07-08T13:31:18;2.97;;;1.38;;
44120;SDS011;29783;52.504;13.478;2023-07-08T13:33:49;3.60;;;1.63;;
44120;SDS011;29783;52.504;13.478;2023-07-08T13:36:18;3.03;;;1.55;;
44120;SDS011;29783;52.504;13.478;2023-07-08T13:38:45;2.35;;;1.58;;
44120;SDS011;29783;52.504;13.478;2023-07-08T13:41:13;6.47;;;1.60;;
44120;SDS011;29783;52.504;13.478;2023-07-08T13:43:46;2.80;;;1.48;;
44120;SDS011;29783;52.504;13.478;2023-07-08T13:46:26;5.03;;;1.60;;
44120;SDS011;29783;52.504;13.478;2023-07-08T13:49:07;2.22;;;1.52;;
44120;SDS011;29783;52.504;13.478;2023-07-08T13:51:39;2.38;;;1.73;;
44120;SDS011;29783;52.504;13.478;2023-07-08T13:54:12;2.78;;;1.42;;
44120;SDS011;29783;52.504;13.478;2023-07-08T13:57:00;7.63;;;1.58;;
44120;SDS011;29783;52.504;13.478;2023-07-08T13:59:26;4.47;;;1.65;;
44120;SDS011;29783;52.504;13.478;2023-07-08T14:01:53;3.38;;;1.58;;
44120;SDS011;29783;52.504;13.478;2023-07-08T14:04:21;7.15;;;1.55;;
44120;SDS011;29783;52.504;13.478;2023-07-08T14:07:00;9.18;;;1.63;;
44120;SDS011;29783;52.504;13.478;2023-07-08T14:09:26;2.70;;;1.50;;
44120;SDS011;29783;52.504;13.478;2023-07-08T14:11:52;3.15;;;2.10;;
44120;SDS011;29783;52.504;13.478;2023-07-08T14:14:18;4.05;;;1.98;;
44120;SDS011;29783;52.504;13.478;2023-07-08T14:16:45;3.97;;;1.60;;
44120;SDS011;29783;52.504;13.478;2023-07-08T14:21:51;1.35;;;1.25;;
44120;SDS011;29783;52.504;13.478;2023-07-08T14:24:20;3.50;;;1.57;;
44120;SDS011;29783;52.504;13.478;2023-07-08T14:26:46;5.28;;;1.75;;
44120;SDS011;29783;52.504;13.478;2023-07-08T14:29:12;5.75;;;1.70;;
44120;SDS011;29783;52.504;13.478;2023-07-08T14:31:38;4.93;;;1.40;;
44120;SDS011;29783;52.504;13.478;2023-07-08T14:34:06;4.38;;;1.50;;
44120;SDS011;29783;52.504;13.478;2023-07-08T14:36:33;3.05;;;1.42;;
44120;SDS011;29783;52.504;13.478;2023-07-08T14:38:59;5.45;;;1.60;;
44120;SDS011;29783;52.504;13.478;2023-07-08T14:41:26;4.10;;;1.67;;
44120;SDS011;29783;52.504;13.478;2023-07-08T14:43:52;3.28;;;2.95;;
44120;SDS011;29783;52.504;13.478;2023-07-08T14:46:19;3.17;;;1.30;;
44120;SDS011;29783;52.504;13.478;2023-07-08T14:48:45;2.42;;;1.60;;
44120;SDS011;29783;52.504;13.478;2023-07-08T14:51:11;3.25;;;2.42;;
44120;SDS011;29783;52.504;13.478;2023-07-08T14:53:36;4.47;;;3.08;;
44120;SDS011;29783;52.504;13.478;2023-07-08T14:56:13;2.53;;;1.60;;
44120;SDS011;29783;52.504;13.478;2023-07-08T14:58:43;3.72;;;1.60;;
44120;SDS011;29783;52.504;13.478;2023-07-08T15:01:21;1.75;;;1.35;;
44120;SDS011;29783;52.504;13.478;2023-07-08T15:03:49;5.45;;;1.52;;
44120;SDS011;29783;52.504;13.478;2023-07-08T15:06:14;4.32;;;1.90;;
44120;SDS011;29783;52.504;13.478;2023-07-08T15:08:40;2.58;;;1.50;;
44120;SDS011;29783;52.504;13.478;2023-07-08T15:11:08;2.13;;;1.60;;
44120;SDS011;29783;52.504;13.478;2023-07-08T15:13:35;2.00;;;1.55;;
44120;SDS011;29783;52.504;13.478;2023-07-08T15:16:01;3.72;;;1.30;;
44120;SDS011;29783;52.504;13.478;2023-07-08T15:18:27;5.38;;;1.80;;
44120;SDS011;29783;52.504;13.478;2023-07-08T15:20:53;2.35;;;1.50;;
44120;SDS011;29783;52.504;13.478;2023-07-08T15:23:19;3.15;;;1.50;;
44120;SDS011;29783;52.504;13.478;2023-07-08T15:25:45;5.50;;;1.83;;
44120;SDS011;29783;52.504;13.478;2023-07-08T15:28:46;3.00;;;1.90;;
44120;SDS011;29783;52.504;13.478;2023-07-08T15:31:12;2.88;;;1.80;;
44120;SDS011;29783;52.504;13.478;2023-07-08T15:33:39;1.92;;;1.50;;
44120;SDS011;29783;52.504;13.478;2023-07-08T15:36:06;5.85;;;1.40;;
44120;SDS011;29783;52.504;13.478;2023-07-08T15:38:33;3.67;;;1.60;;